Time;durP1;ratioP1;P1;durP2;ratioP2;P2;SDS_P1;SDS_P2;PMS_P1;PMS_P2;Temp;Humidity;BMP_temperature;BMP_pressure;BME280_temperature;BME280_humidity;BME280_pressure;Samples;Min_cycle;Max_cycle;Signal;HPM_P1;HPM_P2
2022/03/27 00:00:44;;;;;;;0.10;0.10;;;12.50;1.00;226.50;231333.00;;;;5068076;28;20248;-75
2022/03/27 00:03:13;;;;;;;0.10;0.10;;;12.40;1.00;226.50;231333.00;;;;5069699;28;20214;-75
2022/03/27 00:05:41;;;;;;;0.10;0.10;;;12.40;1.00;226.50;231333.00;;;;5066823;28;20252;-75
2022/03/27 00:08:09;;;;;;;0.10;0.10;;;12.20;99.90;226.50;231333.00;;;;5070560;28;20251;-75
2022/03/27 00:13:24;;;;;;;0.10;0.10;;;11.90;1.00;226.50;231333.00;;;;5070583;28;20217;-73
2022/03/27 00:15:54;;;;;;;0.10;0.10;;;11.80;1.00;226.50;231333.00;;;;5070456;28;20217;-75
2022/03/27 00:18:22;;;;;;;0.10;0.10;;;11.70;48.80;226.50;231333.00;;;;5072420;28;20198;-75
2022/03/27 00:20:50;;;;;;;0.10;0.10;;;11.70;1.00;226.50;231333.00;;;;5076559;28;20232;-74
2022/03/27 00:23:18;;;;;;;0.10;0.10;;;11.70;1.00;226.50;231333.00;;;;5070262;28;20232;-74
2022/03/27 00:25:48;;;;;;;0.10;0.10;;;11.60;99.90;226.50;231333.00;;;;5079339;28;20198;-75
2022/03/27 00:28:16;;;;;;;0.10;0.10;;;11.60;99.90;226.50;231333.00;;;;5086592;28;20384;-75
2022/03/27 00:30:44;;;;;;;0.10;0.10;;;11.60;99.90;226.50;231333.00;;;;5096396;28;20270;-74
2022/03/27 00:33:15;;;;;;;0.00;0.00;;;11.60;99.90;226.50;231333.00;;;;5080462;28;20218;-74
2022/03/27 00:35:43;;;;;;;0.10;0.10;;;11.70;15.60;226.50;231333.00;;;;5080345;28;20247;-75
2022/03/27 00:38:11;;;;;;;0.10;0.10;;;11.70;1.00;226.50;231333.00;;;;5075931;28;20197;-75
2022/03/27 00:40:39;;;;;;;0.10;0.10;;;11.80;88.10;226.50;231333.00;;;;5073988;28;20583;-73
2022/03/27 00:43:07;;;;;;;0.10;0.10;;;11.80;99.90;226.50;231333.00;;;;5072711;28;20331;-73
2022/03/27 00:45:35;;;;;;;0.10;0.10;;;11.80;99.90;226.50;231333.00;;;;5070142;28;20263;-73
2022/03/27 00:48:04;;;;;;;0.10;0.10;;;11.90;99.90;226.50;231333.00;;;;5073880;28;20209;-73
2022/03/27 00:50:33;;;;;;;0.10;0.10;;;11.90;99.90;226.50;231333.00;;;;5073761;28;20205;-74
2022/03/27 00:53:01;;;;;;;0.10;0.10;;;12.00;1.00;226.50;231333.00;;;;5073326;28;20217;-73
2022/03/27 00:55:29;;;;;;;0.10;0.10;;;12.00;1.00;226.50;231333.00;;;;5070946;28;20255;-75
2022/03/27 00:57:58;;;;;;;0.10;0.10;;;12.10;1.00;226.50;231333.00;;;;5073197;28;20668;-73
2022/03/27 01:01:03;;;;;;;0.10;0.10;;;12.10;32.80;226.50;231333.00;;;;5065725;28;20217;-73
2022/03/27 01:03:31;;;;;;;0.00;0.00;;;12.10;99.90;226.50;231333.00;;;;5051994;28;20233;-73
2022/03/27 01:06:02;;;;;;;0.10;0.10;;;12.20;1.00;226.50;231333.00;;;;5070760;28;20190;-74
2022/03/27 01:11:19;;;;;;;0.10;0.10;;;12.20;1.00;226.50;231333.00;;;;5072183;28;20563;-74
2022/03/27 01:13:50;;;;;;;0.10;0.10;;;12.20;1.00;226.50;231333.00;;;;5071467;28;20227;-73
2022/03/27 01:16:37;;;;;;;0.10;0.10;;;12.20;1.00;226.50;231333.00;;;;5082197;28;20200;-73
2022/03/27 01:19:08;;;;;;;0.10;0.10;;;12.20;1.00;226.50;231333.00;;;;5083858;28;20209;-73
2022/03/27 01:21:41;;;;;;;0.10;0.10;;;12.20;1.00;226.50;231333.00;;;;5084523;28;20218;-73
2022/03/27 01:24:10;;;;;;;0.05;0.05;;;12.20;1.00;226.50;231333.00;;;;5083917;28;20190;-73
2022/03/27 01:26:40;;;;;;;0.10;0.10;;;12.20;1.00;226.50;231333.00;;;;5081775;28;20212;-73
2022/03/27 01:29:08;;;;;;;0.10;0.10;;;12.10;1.00;226.50;231333.00;;;;5099151;28;20196;-75
2022/03/27 01:31:37;;;;;;;0.10;0.10;;;12.10;1.00;226.50;231333.00;;;;5065711;28;20240;-74
2022/03/27 01:34:07;;;;;;;0.10;0.10;;;12.10;1.00;226.50;231333.00;;;;5067383;28;20228;-74
2022/03/27 01:36:38;;;;;;;0.10;0.10;;;12.00;1.00;226.50;231333.00;;;;5074543;28;20190;-74
2022/03/27 01:39:09;;;;;;;0.10;0.10;;;12.10;1.00;226.50;231333.00;;;;5074871;28;20750;-74
2022/03/27 01:41:39;;;;;;;0.10;0.10;;;12.10;1.00;226.50;231333.00;;;;5068474;28;20218;-74
2022/03/27 01:44:10;;;;;;;0.03;0.03;;;12.10;1.00;226.50;231333.00;;;;5073252;28;20247;-74
2022/03/27 01:46:41;;;;;;;0.05;0.05;;;12.10;1.00;226.50;231333.00;;;;5072301;28;20263;-74
2022/03/27 01:49:12;;;;;;;0.00;0.00;;;12.00;1.00;226.50;231333.00;;;;5068552;28;20190;-73
2022/03/27 01:51:43;;;;;;;0.10;0.10;;;12.00;1.00;226.50;231333.00;;;;5072275;28;20232;-74
2022/03/27 01:54:12;;;;;;;0.10;0.10;;;12.00;1.00;226.50;231333.00;;;;5073019;28;20725;-74
2022/03/27 01:56:40;;;;;;;0.10;0.10;;;12.00;1.00;226.50;231333.00;;;;5070665;28;20194;-74
2022/03/27 01:59:10;;;;;;;0.10;0.10;;;12.00;9.50;226.50;231333.00;;;;5072418;28;20659;-74
2022/03/27 02:01:39;;;;;;;0.00;0.00;;;12.00;54.70;226.50;231333.00;;;;5072165;28;20240;-73
2022/03/27 02:04:08;;;;;;;0.00;0.00;;;12.00;97.10;226.50;231333.00;;;;5072151;28;20189;-73
2022/03/27 02:06:39;;;;;;;0.10;0.10;;;11.90;99.90;226.50;231333.00;;;;5071880;28;20197;-74
2022/03/27 02:09:10;;;;;;;0.10;0.10;;;11.90;99.90;226.50;231333.00;;;;5063706;28;20307;-75
2022/03/27 02:11:38;;;;;;;0.10;0.10;;;11.90;99.90;226.50;231333.00;;;;5071654;28;20221;-73
2022/03/27 02:14:06;;;;;;;0.10;0.10;;;11.90;99.90;226.50;231333.00;;;;5071786;28;20601;-73
2022/03/27 02:16:34;;;;;;;0.10;0.10;;;11.90;99.90;226.50;231333.00;;;;5071274;28;20224;-73
2022/03/27 02:19:02;;;;;;;0.10;0.10;;;11.90;99.90;226.50;231333.00;;;;5068451;28;20220;-73
2022/03/27 02:21:30;;;;;;;0.10;0.10;;;11.90;99.90;226.50;231333.00;;;;5066441;28;20680;-75
2022/03/27 02:23:58;;;;;;;0.00;0.00;;;11.80;99.90;226.50;231333.00;;;;5086972;28;20193;-73
2022/03/27 02:26:27;;;;;;;0.10;0.10;;;11.80;99.90;226.50;231333.00;;;;5071324;28;20190;-73
2022/03/27 02:28:55;;;;;;;0.10;0.10;;;11.80;99.90;226.50;231333.00;;;;5071682;28;20185;-74
2022/03/27 02:31:23;;;;;;;0.10;0.10;;;11.80;99.90;226.50;231333.00;;;;5071379;28;20197;-74
2022/03/27 02:33:51;;;;;;;0.10;0.10;;;11.80;99.90;226.50;231333.00;;;;5071533;28;20284;-74
2022/03/27 02:36:19;;;;;;;0.10;0.10;;;11.80;99.90;226.50;231333.00;;;;5071518;28;20201;-75
2022/03/27 02:38:48;;;;;;;0.10;0.10;;;11.90;99.90;226.50;231333.00;;;;5071280;28;20655;-75
2022/03/27 02:41:16;;;;;;;0.10;0.10;;;11.90;99.90;226.50;231333.00;;;;5070763;28;20587;-75
2022/03/27 02:43:45;;;;;;;0.03;0.03;;;11.90;99.90;226.50;231333.00;;;;5072235;28;20202;-73
2022/03/27 02:46:13;;;;;;;0.00;0.00;;;11.90;99.90;226.50;231333.00;;;;5071175;28;20190;-73
2022/03/27 02:48:41;;;;;;;0.10;0.10;;;11.80;99.90;226.50;231333.00;;;;5063077;28;20201;-74
2022/03/27 02:51:09;;;;;;;0.00;0.00;;;11.80;99.90;226.50;231333.00;;;;5064936;28;20197;-73
2022/03/27 02:53:37;;;;;;;0.10;0.10;;;11.70;1.00;226.50;231333.00;;;;5070062;28;20687;-75
2022/03/27 02:56:08;;;;;;;0.10;0.10;;;11.70;1.00;226.50;231333.00;;;;5070858;28;21911;-72
2022/03/27 02:58:36;;;;;;;0.10;0.10;;;11.60;1.00;226.50;231333.00;;;;5070372;28;20275;-73
2022/03/27 03:01:06;;;;;;;0.08;0.08;;;11.60;99.90;226.50;231333.00;;;;5068576;28;20271;-73
2022/03/27 03:03:34;;;;;;;0.10;0.10;;;11.50;99.90;226.50;231333.00;;;;5069988;28;20603;-73
2022/03/27 03:06:06;;;;;;;0.00;0.00;;;11.50;99.90;226.50;231333.00;;;;5072372;28;20239;-73
2022/03/27 03:08:37;;;;;;;0.10;0.10;;;11.50;99.90;226.50;231333.00;;;;5071887;28;20201;-73
2022/03/27 03:11:06;;;;;;;0.00;0.00;;;11.50;99.90;226.50;231333.00;;;;5072023;28;20208;-73
2022/03/27 03:13:34;;;;;;;0.03;0.03;;;11.60;99.90;226.50;231333.00;;;;5071536;28;20740;-73
2022/03/27 03:16:07;;;;;;;0.10;0.10;;;11.70;99.90;226.50;231333.00;;;;5070949;28;20193;-74
2022/03/27 03:18:35;;;;;;;0.10;0.10;;;11.70;99.90;226.50;231333.00;;;;5070353;28;20248;-73
2022/03/27 03:21:04;;;;;;;0.10;0.10;;;11.70;99.90;226.50;231333.00;;;;5067001;28;20202;-74
2022/03/27 03:23:32;;;;;;;0.10;0.10;;;11.70;99.90;226.50;231333.00;;;;5057081;28;20240;-74
2022/03/27 03:26:01;;;;;;;0.10;0.10;;;11.70;99.90;226.50;231333.00;;;;5070723;28;20190;-74
2022/03/27 03:28:35;;;;;;;0.10;0.10;;;11.70;1.00;226.50;231333.00;;;;5070833;28;20199;-75
2022/03/27 03:31:06;;;;;;;0.10;0.10;;;11.60;1.00;226.50;231333.00;;;;5070895;28;20193;-78
2022/03/27 03:33:34;;;;;;;0.10;0.10;;;11.70;1.00;226.50;231333.00;;;;5069918;28;20539;-75
2022/03/27 03:36:02;;;;;;;0.10;0.10;;;11.70;1.00;226.50;231333.00;;;;5067414;28;20551;-75
2022/03/27 03:38:30;;;;;;;0.10;0.10;;;11.70;1.00;226.50;231333.00;;;;5064202;28;20244;-75
2022/03/27 03:40:58;;;;;;;0.10;0.10;;;11.70;1.00;226.50;231333.00;;;;5068461;28;20255;-74
2022/03/27 03:43:26;;;;;;;0.10;0.10;;;11.60;1.00;226.50;231333.00;;;;5070252;28;20213;-76
2022/03/27 03:45:54;;;;;;;0.10;0.10;;;11.50;1.00;226.50;231333.00;;;;5070849;28;20198;-73
2022/03/27 03:48:24;;;;;;;0.10;0.10;;;11.50;1.00;226.50;231333.00;;;;5067476;28;20254;-74
2022/03/27 03:50:52;;;;;;;0.10;0.10;;;11.50;1.00;226.50;231333.00;;;;5071134;28;20201;-72
2022/03/27 03:53:19;;;;;;;0.00;0.00;;;11.60;1.00;226.50;231333.00;;;;5076680;28;20225;-72
2022/03/27 03:55:48;;;;;;;0.10;0.10;;;11.60;1.00;226.50;231333.00;;;;5072934;28;20671;-74
2022/03/27 03:58:16;;;;;;;0.00;0.00;;;11.50;1.00;226.50;231333.00;;;;5076748;28;20217;-74
2022/03/27 04:00:46;;;;;;;0.00;0.00;;;11.50;1.00;226.50;231333.00;;;;5077157;28;20193;-73
2022/03/27 04:03:15;;;;;;;0.10;0.10;;;11.50;1.00;226.50;231333.00;;;;5075729;28;20247;-74
2022/03/27 04:05:44;;;;;;;0.10;0.10;;;11.50;1.00;226.50;231333.00;;;;5076706;28;20242;-74
2022/03/27 04:08:14;;;;;;;0.10;0.10;;;11.40;1.00;226.50;231333.00;;;;5076744;28;20193;-74
2022/03/27 04:10:43;;;;;;;0.10;0.10;;;11.50;1.00;226.50;231333.00;;;;5075808;28;20239;-74
2022/03/27 04:13:11;;;;;;;0.05;0.05;;;11.50;1.00;226.50;231333.00;;;;5078166;28;20209;-74
2022/03/27 04:15:39;;;;;;;0.00;0.00;;;11.50;1.00;226.50;231333.00;;;;5073392;28;20259;-73
2022/03/27 04:18:21;;;;;;;0.10;0.10;;;11.50;1.00;226.50;231333.00;;;;5077578;28;20243;-73
2022/03/27 04:20:51;;;;;;;0.10;0.10;;;11.60;1.00;226.50;231333.00;;;;5077317;28;20681;-74
2022/03/27 04:23:19;;;;;;;0.10;0.10;;;11.50;1.00;226.50;231333.00;;;;5076879;28;20209;-75
2022/03/27 04:25:47;;;;;;;0.10;0.10;;;11.60;1.00;226.50;231333.00;;;;5072395;28;20243;-74
2022/03/27 04:28:15;;;;;;;0.10;0.10;;;11.60;1.00;226.50;231333.00;;;;5075127;28;20596;-75
2022/03/27 04:30:43;;;;;;;0.10;0.10;;;11.60;1.00;226.50;231333.00;;;;5076880;28;20251;-74
2022/03/27 04:33:11;;;;;;;0.10;0.10;;;11.60;1.00;226.50;231333.00;;;;5077094;28;20256;-74
2022/03/27 04:35:39;;;;;;;0.10;0.10;;;11.60;1.00;226.50;231333.00;;;;5076107;28;21038;-73
2022/03/27 04:38:09;;;;;;;0.10;0.10;;;11.60;1.00;226.50;231333.00;;;;5073524;28;20186;-74
2022/03/27 04:40:37;;;;;;;0.00;0.00;;;11.60;1.00;226.50;231333.00;;;;5076210;28;20193;-74
2022/03/27 04:43:06;;;;;;;0.10;0.10;;;11.60;1.00;226.50;231333.00;;;;5076647;28;20221;-72
2022/03/27 04:45:34;;;;;;;0.10;0.10;;;11.50;1.00;226.50;231333.00;;;;5074948;28;20605;-74
2022/03/27 04:48:03;;;;;;;0.10;0.10;;;11.50;1.00;226.50;231333.00;;;;5077077;28;20200;-74
2022/03/27 04:50:31;;;;;;;0.00;0.00;;;11.50;1.00;226.50;231333.00;;;;5076233;28;20209;-74
2022/03/27 04:52:59;;;;;;;0.10;0.10;;;11.50;1.00;226.50;231333.00;;;;5074046;28;20270;-74
2022/03/27 04:55:29;;;;;;;0.10;0.10;;;11.50;1.00;226.50;231333.00;;;;5073366;28;20190;-74
2022/03/27 04:57:57;;;;;;;0.10;0.10;;;11.50;1.00;226.50;231333.00;;;;5073966;28;20190;-73
2022/03/27 05:00:25;;;;;;;0.10;0.10;;;11.40;1.00;226.50;231333.00;;;;5075818;28;20186;-72
2022/03/27 05:02:52;;;;;;;0.10;0.10;;;11.40;1.00;226.50;231333.00;;;;5073887;28;20274;-72
2022/03/27 05:05:21;;;;;;;0.10;0.10;;;11.40;1.00;226.50;231333.00;;;;5072857;28;20197;-73
2022/03/27 05:07:49;;;;;;;0.10;0.10;;;11.30;1.00;226.50;231333.00;;;;5073772;28;20243;-73
2022/03/27 05:10:17;;;;;;;0.10;0.10;;;11.30;1.00;226.50;231333.00;;;;5073695;28;20197;-72
2022/03/27 05:12:46;;;;;;;0.10;0.10;;;11.40;1.00;226.50;231333.00;;;;5073715;28;20283;-73
2022/03/27 05:15:14;;;;;;;0.10;0.10;;;11.30;1.00;226.50;231333.00;;;;5073611;28;20243;-73
2022/03/27 05:17:47;;;;;;;0.10;0.10;;;11.30;1.00;226.50;231333.00;;;;5072774;28;20602;-73
2022/03/27 05:20:15;;;;;;;0.10;0.10;;;11.30;1.00;226.50;231333.00;;;;5072630;28;20194;-72
2022/03/27 05:22:44;;;;;;;0.00;0.00;;;11.30;1.00;226.50;231333.00;;;;5072544;28;20217;-73
2022/03/27 05:25:13;;;;;;;0.10;0.10;;;11.30;1.00;226.50;231333.00;;;;5072660;28;20190;-72
2022/03/27 05:27:48;;;;;;;0.00;0.00;;;11.30;1.00;226.50;231333.00;;;;5067874;28;20664;-73
2022/03/27 05:30:18;;;;;;;0.10;0.10;;;11.30;1.00;226.50;231333.00;;;;5071346;28;20243;-73
2022/03/27 05:32:47;;;;;;;0.10;0.10;;;11.30;1.00;226.50;231333.00;;;;5072571;28;20248;-74
2022/03/27 05:35:16;;;;;;;0.10;0.10;;;11.30;1.00;226.50;231333.00;;;;5072863;28;20663;-74
2022/03/27 05:37:47;;;;;;;0.00;0.00;;;11.30;1.00;226.50;231333.00;;;;5072931;28;20212;-74
2022/03/27 05:40:18;;;;;;;0.10;0.10;;;11.30;1.00;226.50;231333.00;;;;5071043;28;20194;-75
2022/03/27 05:42:49;;;;;;;0.10;0.10;;;11.30;1.00;226.50;231333.00;;;;5072464;28;20214;-75
2022/03/27 05:45:18;;;;;;;0.10;0.10;;;11.30;1.00;226.50;231333.00;;;;5072374;28;20186;-75
2022/03/27 05:47:47;;;;;;;0.10;0.10;;;11.30;1.00;226.50;231333.00;;;;5072190;28;20194;-72
2022/03/27 05:50:22;;;;;;;0.03;0.03;;;11.40;1.00;226.50;231333.00;;;;5072682;28;20193;-73
2022/03/27 05:52:51;;;;;;;0.10;0.10;;;11.40;1.00;226.50;231333.00;;;;5071792;28;20217;-73
2022/03/27 05:55:20;;;;;;;0.10;0.10;;;11.40;1.00;226.50;231333.00;;;;5072361;28;20667;-73
2022/03/27 05:57:50;;;;;;;0.10;0.10;;;11.30;1.00;226.50;231333.00;;;;5072148;28;20225;-74
2022/03/27 06:00:20;;;;;;;0.10;0.10;;;11.30;1.00;226.50;231333.00;;;;5072389;28;20185;-73
2022/03/27 06:02:50;;;;;;;0.10;0.10;;;11.40;1.00;226.50;231333.00;;;;5070538;28;20310;-72
2022/03/27 06:05:22;;;;;;;0.10;0.10;;;11.30;1.00;226.50;231333.00;;;;5072374;28;20572;-73
2022/03/27 06:07:53;;;;;;;0.10;0.10;;;11.30;1.00;226.50;231333.00;;;;5069269;28;20239;-73
2022/03/27 06:10:23;;;;;;;0.10;0.10;;;11.30;1.00;226.50;231333.00;;;;5070706;28;20186;-73
2022/03/27 06:12:54;;;;;;;0.10;0.10;;;11.30;1.00;226.50;231333.00;;;;5070250;28;20275;-73
2022/03/27 06:15:23;;;;;;;0.03;0.03;;;11.30;1.00;226.50;231333.00;;;;5092050;28;20202;-75
2022/03/27 06:17:52;;;;;;;0.10;0.10;;;11.40;1.00;226.50;231333.00;;;;5086936;28;20220;-75
2022/03/27 06:20:23;;;;;;;0.10;0.10;;;11.40;1.00;226.50;231333.00;;;;5073010;28;20651;-75
2022/03/27 06:22:52;;;;;;;0.10;0.10;;;11.40;1.00;226.50;231333.00;;;;5072861;28;20278;-74
2022/03/27 06:25:23;;;;;;;0.10;0.10;;;11.40;1.00;226.50;231333.00;;;;5071145;28;20313;-76
2022/03/27 06:27:51;;;;;;;0.10;0.10;;;11.40;1.00;226.50;231333.00;;;;5073087;28;20201;-76
2022/03/27 06:30:23;;;;;;;0.05;0.05;;;11.40;1.00;226.50;231333.00;;;;5068747;28;20185;-75
2022/03/27 06:32:58;;;;;;;0.10;0.10;;;11.30;1.00;226.50;231333.00;;;;5072422;28;20304;-74
2022/03/27 06:35:27;;;;;;;0.10;0.10;;;11.40;1.00;226.50;231333.00;;;;5072272;28;20189;-74
2022/03/27 06:37:56;;;;;;;0.10;0.10;;;11.40;1.00;226.50;231333.00;;;;5067725;28;20200;-74
2022/03/27 06:40:25;;;;;;;0.10;0.10;;;11.40;1.00;226.50;231333.00;;;;5071421;28;20630;-74
2022/03/27 06:42:54;;;;;;;0.10;0.10;;;11.40;1.00;226.50;231333.00;;;;5069509;28;20225;-73
2022/03/27 06:45:28;;;;;;;0.10;0.10;;;11.40;1.00;226.50;231333.00;;;;5078690;28;20221;-75
2022/03/27 06:47:56;;;;;;;0.10;0.10;;;11.50;1.00;226.50;231333.00;;;;5068404;28;20269;-73
2022/03/27 06:50:25;;;;;;;0.10;0.10;;;11.50;1.00;226.50;231333.00;;;;5067358;28;20555;-73
2022/03/27 06:52:55;;;;;;;0.10;0.10;;;11.50;1.00;226.50;231333.00;;;;5068928;28;20221;-74
2022/03/27 06:55:24;;;;;;;0.00;0.00;;;11.50;1.00;226.50;231333.00;;;;5069241;28;20585;-74
2022/03/27 06:57:52;;;;;;;0.10;0.10;;;11.50;1.00;226.50;231333.00;;;;5072030;28;20272;-73
2022/03/27 07:03:10;;;;;;;0.10;0.10;;;11.50;1.00;226.50;231333.00;;;;5068438;28;20227;-70
2022/03/27 07:05:41;;;;;;;0.10;0.10;;;11.50;1.00;226.50;231333.00;;;;5068647;28;20192;-71
2022/03/27 07:08:12;;;;;;;0.10;0.10;;;11.60;1.00;226.50;231333.00;;;;5071658;28;20197;-71
2022/03/27 07:10:41;;;;;;;0.10;0.10;;;11.60;1.00;226.50;231333.00;;;;5071387;28;20659;-72
2022/03/27 07:13:11;;;;;;;0.10;0.10;;;11.60;1.00;226.50;231333.00;;;;5069240;28;20209;-71
2022/03/27 07:15:42;;;;;;;0.10;0.10;;;11.70;1.00;226.50;231333.00;;;;5065276;28;20551;-71
2022/03/27 07:18:13;;;;;;;0.00;0.00;;;11.70;1.00;226.50;231333.00;;;;5072367;28;20276;-71
2022/03/27 07:20:43;;;;;;;0.00;0.00;;;11.70;1.00;226.50;231333.00;;;;5064330;28;20273;-71
2022/03/27 07:23:14;;;;;;;0.00;0.00;;;11.60;1.00;226.50;231333.00;;;;5070953;28;20225;-72
2022/03/27 07:25:47;;;;;;;0.10;0.10;;;11.50;1.00;226.50;231333.00;;;;5063111;28;20273;-71
2022/03/27 07:28:18;;;;;;;0.10;0.10;;;11.60;1.00;226.50;231333.00;;;;5067043;28;20194;-72
2022/03/27 07:30:48;;;;;;;0.08;0.08;;;11.60;1.00;226.50;231333.00;;;;5071686;28;20192;-71
2022/03/27 07:33:19;;;;;;;0.03;0.03;;;11.70;1.00;226.50;231333.00;;;;5069149;28;20221;-71
2022/03/27 07:35:47;;;;;;;0.10;0.10;;;11.70;1.00;226.50;231333.00;;;;5070336;28;20686;-72
2022/03/27 07:38:16;;;;;;;0.10;0.10;;;11.70;1.00;226.50;231333.00;;;;5072624;28;20659;-72
2022/03/27 07:40:45;;;;;;;0.03;0.03;;;11.70;1.00;226.50;231333.00;;;;5072444;28;20607;-71
2022/03/27 07:43:12;;;;;;;0.10;0.10;;;11.80;1.00;226.50;231333.00;;;;5071929;28;20221;-72
2022/03/27 07:45:41;;;;;;;0.10;0.10;;;11.90;1.00;226.50;231333.00;;;;5073054;28;20659;-71
2022/03/27 07:48:09;;;;;;;0.10;0.10;;;11.90;1.00;226.50;231333.00;;;;5073591;28;20244;-71
2022/03/27 07:50:38;;;;;;;0.10;0.10;;;11.90;1.00;226.50;231333.00;;;;5073684;28;20617;-72
2022/03/27 07:53:06;;;;;;;0.10;0.10;;;12.00;1.00;226.50;231333.00;;;;5071977;28;20217;-71
2022/03/27 07:55:37;;;;;;;0.00;0.00;;;12.00;99.90;226.50;231333.00;;;;5071164;28;20193;-71
2022/03/27 07:58:06;;;;;;;0.10;0.10;;;12.10;99.90;226.50;231333.00;;;;5069876;28;20586;-71
2022/03/27 08:00:34;;;;;;;0.10;0.10;;;12.10;99.90;226.50;231333.00;;;;5068058;28;20617;-72
2022/03/27 08:03:02;;;;;;;0.10;0.10;;;12.20;99.90;226.50;231333.00;;;;5070156;28;20209;-72
2022/03/27 08:05:30;;;;;;;0.10;0.10;;;12.30;1.00;226.50;231333.00;;;;5069776;28;20193;-72
2022/03/27 08:08:00;;;;;;;0.10;0.10;;;12.40;1.00;226.50;231333.00;;;;5070029;28;20190;-72
2022/03/27 08:10:28;;;;;;;0.10;0.10;;;12.40;1.00;226.50;231333.00;;;;5068042;28;20528;-73
2022/03/27 08:12:56;;;;;;;0.00;0.00;;;12.50;1.00;226.50;231333.00;;;;5065092;28;20263;-72
2022/03/27 08:15:24;;;;;;;0.00;0.00;;;12.50;1.00;226.50;231333.00;;;;5070218;28;20189;-72
2022/03/27 08:17:53;;;;;;;0.10;0.10;;;12.50;1.00;226.50;231333.00;;;;5062932;28;20267;-72
2022/03/27 08:20:23;;;;;;;0.10;0.10;;;12.70;99.90;226.50;231333.00;;;;5070491;28;20288;-72
2022/03/27 08:22:51;;;;;;;0.10;0.10;;;12.70;99.90;226.50;231333.00;;;;5085966;28;20205;-71
2022/03/27 08:28:10;;;;;;;0.10;0.10;;;12.80;99.90;226.50;231333.00;;;;5086059;28;20224;-71
2022/03/27 08:30:39;;;;;;;0.00;0.00;;;12.90;1.20;226.50;231333.00;;;;5069689;28;20214;-72
2022/03/27 08:33:08;;;;;;;0.10;0.10;;;12.90;1.00;226.50;231333.00;;;;5067748;28;20214;-72
2022/03/27 08:35:38;;;;;;;0.10;0.10;;;12.90;1.00;226.50;231333.00;;;;5070376;28;20343;-73
2022/03/27 08:38:06;;;;;;;0.10;0.10;;;12.80;1.00;226.50;231333.00;;;;5071991;28;20720;-71
2022/03/27 08:40:38;;;;;;;0.10;0.10;;;12.90;1.00;226.50;231333.00;;;;5074261;28;20201;-71
2022/03/27 08:43:10;;;;;;;0.10;0.10;;;12.90;1.00;226.50;231333.00;;;;5074359;28;20726;-72
2022/03/27 08:45:39;;;;;;;0.08;0.08;;;13.00;99.90;226.50;231333.00;;;;5072485;28;20560;-72
2022/03/27 08:48:07;;;;;;;0.10;0.10;;;13.10;99.90;226.50;231333.00;;;;5072447;28;20247;-72
2022/03/27 08:50:44;;;;;;;0.00;0.00;;;13.20;1.00;226.50;231333.00;;;;5071620;28;20205;-71
2022/03/27 08:53:12;;;;;;;0.10;0.10;;;13.20;1.00;226.50;231333.00;;;;5073605;28;20217;-71
2022/03/27 08:55:51;;;;;;;0.10;0.10;;;13.30;1.00;226.50;231333.00;;;;5073156;28;20552;-73
2022/03/27 08:58:27;;;;;;;0.10;0.10;;;13.30;1.00;226.50;231333.00;;;;5071343;28;20260;-73
2022/03/27 09:00:55;;;;;;;0.10;0.10;;;13.40;89.80;226.50;231333.00;;;;5073654;28;20197;-72
2022/03/27 09:03:23;;;;;;;0.10;0.10;;;13.50;1.00;226.50;231333.00;;;;5073292;28;20304;-72
2022/03/27 09:05:51;;;;;;;0.10;0.10;;;13.50;1.00;226.50;231333.00;;;;5072775;28;20647;-72
2022/03/27 09:08:19;;;;;;;0.00;0.00;;;13.60;99.90;226.50;231333.00;;;;5072621;28;20247;-71
2022/03/27 09:10:49;;;;;;;0.00;0.00;;;13.60;1.00;226.50;231333.00;;;;5073405;28;20194;-72
2022/03/27 09:13:19;;;;;;;0.10;0.10;;;13.70;23.20;226.50;231333.00;;;;5066908;28;20265;-72
2022/03/27 09:15:59;;;;;;;0.00;0.00;;;13.70;1.00;226.50;231333.00;;;;5073468;28;20221;-72
2022/03/27 09:18:47;;;;;;;0.10;0.10;;;13.80;99.90;226.50;231333.00;;;;5070840;28;20275;-72
2022/03/27 09:21:18;;;;;;;0.10;0.10;;;13.70;99.90;226.50;231333.00;;;;5072690;28;20190;-71
2022/03/27 09:23:52;;;;;;;0.10;0.10;;;13.80;1.00;226.50;231333.00;;;;5072143;28;20255;-73
2022/03/27 09:26:22;;;;;;;0.00;0.00;;;13.90;1.00;226.50;231333.00;;;;5072370;28;20663;-72
2022/03/27 09:28:52;;;;;;;0.00;0.00;;;14.00;99.90;226.50;231333.00;;;;5071969;28;20190;-72
2022/03/27 09:31:26;;;;;;;0.10;0.10;;;14.10;61.80;226.50;231333.00;;;;5066849;28;20204;-72
2022/03/27 09:33:57;;;;;;;0.10;0.10;;;14.10;42.90;226.50;231333.00;;;;5072324;28;20194;-72
2022/03/27 09:36:27;;;;;;;0.10;0.10;;;14.20;1.00;226.50;231333.00;;;;5068792;28;20206;-72
2022/03/27 09:39:06;;;;;;;0.10;0.10;;;14.20;1.00;226.50;231333.00;;;;5072208;28;20289;-73
2022/03/27 09:41:46;;;;;;;0.03;0.03;;;14.30;1.00;226.50;231333.00;;;;5071264;28;20638;-73
2022/03/27 09:44:18;;;;;;;0.10;0.10;;;14.40;1.00;226.50;231333.00;;;;5072158;28;20296;-72
2022/03/27 09:46:51;;;;;;;0.03;0.03;;;14.40;1.00;226.50;231333.00;;;;5072280;28;20198;-72
2022/03/27 09:49:21;;;;;;;0.10;0.10;;;14.50;1.00;226.50;231333.00;;;;5067518;28;20190;-72
2022/03/27 09:51:56;;;;;;;0.10;0.10;;;14.60;1.00;226.50;231333.00;;;;5073309;28;20524;-72
2022/03/27 09:54:26;;;;;;;0.10;0.10;;;14.60;1.00;226.50;231333.00;;;;5072789;28;20670;-72
2022/03/27 09:56:56;;;;;;;0.10;0.10;;;14.70;1.00;226.50;231333.00;;;;5073058;28;20610;-72
2022/03/27 09:59:30;;;;;;;0.10;0.10;;;14.70;99.90;226.50;231333.00;;;;5072704;28;20190;-72
2022/03/27 10:02:18;;;;;;;0.05;0.05;;;14.70;99.90;226.50;231333.00;;;;5071520;28;20608;-73
2022/03/27 10:05:02;;;;;;;0.10;0.10;;;14.80;99.90;226.50;231333.00;;;;5073195;28;20691;-73
2022/03/27 10:07:40;;;;;;;0.10;0.10;;;14.80;99.90;226.50;231333.00;;;;5064910;28;20197;-73
2022/03/27 10:10:11;;;;;;;0.00;0.00;;;14.80;99.90;226.50;231333.00;;;;5073065;28;20601;-72
2022/03/27 10:12:43;;;;;;;0.10;0.10;;;14.80;99.90;226.50;231333.00;;;;5065314;28;20832;-73
2022/03/27 10:15:20;;;;;;;0.10;0.10;;;14.90;99.90;226.50;231333.00;;;;5073260;28;20194;-73
2022/03/27 10:17:56;;;;;;;0.10;0.10;;;14.90;99.90;226.50;231333.00;;;;5070586;28;20574;-72
2022/03/27 10:20:29;;;;;;;0.03;0.03;;;15.00;99.90;226.50;231333.00;;;;5078363;28;20190;-72
2022/03/27 10:23:04;;;;;;;0.10;0.10;;;15.10;99.90;226.50;231333.00;;;;5081160;28;20214;-72
2022/03/27 10:25:40;;;;;;;0.10;0.10;;;15.20;99.90;226.50;231333.00;;;;5080558;28;20221;-71
2022/03/27 10:28:10;;;;;;;0.00;0.00;;;15.20;99.90;226.50;231333.00;;;;5081370;28;20201;-72
2022/03/27 10:30:40;;;;;;;0.10;0.10;;;15.30;99.90;226.50;231333.00;;;;5080374;28;20201;-72
2022/03/27 10:33:10;;;;;;;0.10;0.10;;;15.30;99.90;226.50;231333.00;;;;5078812;28;20218;-72
2022/03/27 10:35:53;;;;;;;0.10;0.10;;;15.30;99.90;226.50;231333.00;;;;5064156;28;20201;-71
2022/03/27 10:38:37;;;;;;;0.00;0.00;;;15.20;99.90;226.50;231333.00;;;;5072870;28;20243;-72
2022/03/27 10:41:14;;;;;;;0.10;0.10;;;15.10;99.90;226.50;231333.00;;;;5073290;28;20328;-72
2022/03/27 10:43:54;;;;;;;0.00;0.00;;;15.20;99.90;226.50;231333.00;;;;5072200;28;20276;-72
2022/03/27 10:46:24;;;;;;;0.10;0.10;;;15.20;99.90;226.50;231333.00;;;;5067960;28;20618;-72
2022/03/27 10:49:09;;;;;;;0.00;0.00;;;15.00;97.50;226.50;231333.00;;;;5071840;28;20244;-72
2022/03/27 10:51:41;;;;;;;0.00;0.00;;;15.00;99.90;226.50;231333.00;;;;5071814;28;20274;-71
2022/03/27 10:54:12;;;;;;;0.10;0.10;;;15.10;99.90;226.50;231333.00;;;;5069186;28;20240;-73
2022/03/27 10:56:44;;;;;;;0.10;0.10;;;15.10;99.90;226.50;231333.00;;;;5071608;28;20197;-72
2022/03/27 10:59:17;;;;;;;0.10;0.10;;;15.10;97.80;226.50;231333.00;;;;5064773;28;20186;-72
2022/03/27 11:01:48;;;;;;;0.00;0.00;;;15.10;97.60;226.50;231333.00;;;;5071875;28;20238;-72
2022/03/27 11:04:18;;;;;;;0.10;0.10;;;15.20;92.50;226.50;231333.00;;;;5071534;28;20206;-72
2022/03/27 11:06:49;;;;;;;0.10;0.10;;;15.20;90.40;226.50;231333.00;;;;5071847;28;20231;-72
2022/03/27 11:09:35;;;;;;;0.10;0.10;;;15.20;78.40;226.50;231333.00;;;;5066813;28;20585;-72